Terminal Aerodrome Forecast
Issued by NWS

Home | Current Version | Previous Version | Text Only | Print | Product List | Glossary On
Versions: 1 2 3 4 5 6 7 8 9 10 11 12 13 14 15
000
FTUS45 KTWC 241331 AAB
TAFOLS
TAF AMD
KOLS 241331Z 2414/2512 21005KT P6SM FEW020 BKN035
     FM241800 24012G18KT P6SM FEW030 SCT060
     FM250300 VRB03KT P6SM FEW040 SCT070=

USA.gov is the U.S. government's official web portal to all federal, state and local government web resources and services.